Latest Weather Observations for Groote Eylandt Airport

IDD60801

Issued at 2:01 pm CST Wednesday 8 July 2015 (issued every 30 minutes, with the page automatically refreshed every 10 minutes)

About weather observations | Map of weather stations | Latest weather observations for NT | Other Formats
Station Details ID: 014518 Name: GROOTE EYLANDT AIRPORT Lat: -13.97 Lon: 136.46 Height: 13.7 m
Data from the previous 72 hours. | See also: Recent months at Groote Eylandt Airport
Date/Time
CST
Temp
°C
App
Temp
°C
Dew
Point
Rel
Hum
%
Delta-T
°C
Wind Press
QNH
hPa
Press
MSL
hPa
Rain
since 9 am
mm
Dir
 
Spd
km/h
Gust
km/h
Spd
kts
Gust
kts
08/02:00pm 28.7 25.2 10.8 33 10.2 ESE 20 32 11 17 1013.0 1012.9 0.0
08/01:30pm 28.7 25.0 12.6 37 9.4 ESE 24 39 13 21 1013.4 1013.4 0.0
08/01:00pm 29.0 24.7 10.6 32 10.5 ESE 24 43 13 23 1013.6 1013.6 0.0
08/12:30pm 28.9 26.0 12.3 36 9.7 ESE 19 28 10 15 1013.9 1013.9 0.0
08/12:00pm 28.7 26.4 14.1 40 8.8 ESE 19 30 10 16 1014.2 1014.2 0.0
08/11:30am 29.0 26.5 12.4 36 9.7 ESE 17 32 9 17 1014.5 1014.5 0.0
08/11:00am 28.6 26.5 14.8 43 8.4 E 19 28 10 15 1014.9 1014.9 0.0
08/10:30am 27.5 26.2 14.8 45 7.7 ESE 15 33 8 18 1015.3 1015.3 0.0
08/10:00am 27.2 27.7 17.4 55 6.2 SE 11 24 6 13 1015.3 1015.3 0.0
08/09:30am 26.3 26.4 17.4 58 5.6 SE 13 22 7 12 1015.5 1015.5 0.0
08/09:00am 24.2 26.4 19.1 73 3.3 SE 6 9 3 5 1015.4 1015.4 0.0
08/08:30am 22.0 25.0 18.4 80 2.3 CALM 0 0 0 0 1015.2 1015.2 0.0
08/08:00am 18.9 20.1 16.9 88 1.2 E 6 6 3 3 1014.8 1014.8 0.0
08/07:30am 15.8 16.7 15.2 96 0.3 SSE 4 6 2 3 1014.6 1014.6 0.0
08/07:00am 13.6 14.6 13.1 97 0.3 CALM 0 0 0 0 1014.3 1014.3 0.0
08/06:30am 14.0 15.1 13.4 96 0.3 CALM 0 0 0 0 1013.9 1013.9 0.0
08/06:00am 14.2 15.3 13.6 96 0.3 CALM 0 0 0 0 1013.8 1013.8 0.0
08/05:30am 14.5 15.7 13.9 96 0.3 CALM 0 0 0 0 1013.6 1013.6 0.0
08/05:00am 14.7 15.9 13.9 95 0.4 CALM 0 0 0 0 1013.4 1013.4 0.0
08/04:30am 15.0 16.3 14.2 95 0.5 CALM 0 0 0 0 1013.1 1013.1 0.0
08/04:00am 15.6 17.2 14.8 95 0.5 CALM 0 0 0 0 1013.1 1013.1 0.0
08/03:30am 16.0 17.6 15.0 94 0.6 CALM 0 0 0 0 1013.2 1013.2 0.0
08/03:00am 16.4 18.2 15.4 94 0.6 CALM 0 0 0 0 1013.2 1013.2 0.0
08/02:30am 16.7 18.5 15.6 93 0.6 CALM 0 0 0 0 1013.5 1013.5 0.0
08/02:00am 17.2 19.2 16.1 93 0.7 CALM 0 0 0 0 1013.6 1013.6 0.0
08/01:30am 17.5 19.6 16.2 92 0.8 CALM 0 0 0 0 1013.8 1013.8 0.0
08/01:00am 18.1 20.3 16.4 90 1.0 CALM 0 0 0 0 1013.8 1013.8 0.0
08/12:30am 18.7 21.1 17.0 90 1.0 CALM 0 0 0 0 1013.9 1013.9 0.0
08/12:00am 19.0 21.2 16.6 86 1.4 CALM 0 0 0 0 1013.9 1013.9 0.0
 
Date/Time
CST
Temp
°C
App
Temp
°C
Dew
Point
Rel
Hum
%
Delta-T
°C
Wind Press
QNH
hPa
Press
MSL
hPa
Rain
since 9 am
mm
Dir
 
Spd
km/h
Gust
km/h
Spd
kts
Gust
kts
07/11:30pm 19.6 22.0 17.0 85 1.6 CALM 0 0 0 0 1014.1 1014.1 0.0
07/11:00pm 19.9 22.3 16.9 83 1.8 CALM 0 0 0 0 1014.3 1014.3 0.0
07/10:30pm 21.4 23.5 17.2 77 2.6 ESE 2 6 1 3 1014.4 1014.4 0.0
07/10:00pm 22.7 24.1 17.8 74 3.0 ESE 7 9 4 5 1014.5 1014.5 0.0
07/09:30pm 23.5 24.2 17.9 71 3.5 ESE 11 19 6 10 1014.3 1014.3 0.0
07/09:00pm 23.5 24.6 17.9 71 3.5 ESE 9 19 5 10 1014.2 1014.2 0.0
07/08:30pm 23.4 24.3 17.6 70 3.6 ESE 9 15 5 8 1014.1 1014.1 0.0
07/08:00pm 23.5 24.8 17.5 69 3.7 ESE 7 13 4 7 1014.0 1014.0 0.0
07/07:30pm 23.6 24.7 17.1 67 4.0 SE 7 11 4 6 1013.8 1013.8 0.0
07/07:00pm 24.3 25.0 17.1 64 4.5 ESE 9 17 5 9 1013.5 1013.5 0.0
07/06:30pm 24.9 24.5 17.1 62 4.8 ESE 15 28 8 15 1013.4 1013.4 0.0
07/06:00pm 25.2 25.5 17.1 60 5.0 ESE 11 24 6 13 1013.2 1013.2 0.0
07/05:30pm 25.4 25.0 17.1 60 5.2 SE 15 20 8 11 1012.9 1012.8 0.0
07/05:00pm 26.2 25.9 17.3 58 5.6 ESE 15 24 8 13 1012.7 1012.6 0.0
07/04:30pm 27.0 25.4 16.6 53 6.4 E 20 32 11 17 1012.5 1012.4 0.0
07/04:00pm 26.8 25.4 17.0 55 6.1 ESE 20 30 11 16 1012.6 1012.5 0.0
07/03:30pm 26.6 25.2 16.5 54 6.2 ESE 19 30 10 16 1012.4 1012.3 0.0
07/03:00pm 26.7 25.1 16.0 52 6.6 SE 19 30 10 16 1012.5 1012.4 0.0
07/02:30pm 27.7 26.5 16.0 49 7.2 SE 17 28 9 15 1012.6 1012.5 0.0
07/02:00pm 27.8 27.1 16.4 50 7.1 ESE 15 24 8 13 1013.0 1012.9 0.0
07/01:30pm 27.3 27.2 17.8 56 6.0 SSE 15 28 8 15 1013.4 1013.4 0.0
07/01:00pm 26.9 26.6 17.4 56 6.0 SE 15 26 8 14 1013.8 1013.8 0.0
07/12:30pm 27.2 26.3 16.8 53 6.5 SE 17 30 9 16 1014.2 1014.2 0.0
07/12:00pm 27.9 28.0 18.3 56 6.1 S 15 30 8 16 1014.4 1014.4 0.0
07/11:30am 29.6 27.6 13.8 38 9.5 ESE 17 32 9 17 1014.4 1014.4 0.0
07/11:00am 28.8 28.3 16.0 45 7.9 SE 13 20 7 11 1015.0 1015.0 0.0
07/10:30am 27.9 27.8 15.9 48 7.4 SE 11 19 6 10 1015.4 1015.4 0.0
07/10:00am 27.0 27.1 16.6 53 6.4 SE 11 20 6 11 1015.6 1015.6 0.0
07/09:30am 26.3 27.1 17.4 58 5.6 SSE 9 17 5 9 1015.7 1015.7 0.0
07/09:00am 25.0 27.4 19.6 72 3.5 SE 6 9 3 5 1015.5 1015.5 0.0
07/08:30am 22.4 25.1 20.3 88 1.4 ESE 6 9 3 5 1015.2 1015.2 0.0
07/08:00am 19.8 21.6 18.3 91 0.9 E 6 7 3 4 1014.9 1014.9 0.0
07/07:30am 17.6 19.9 16.8 95 0.5 CALM 0 0 0 0 1014.6 1014.6 0.0
07/07:00am 17.0 18.1 16.7 98 0.2 ESE 6 7 3 4 1014.3 1014.3 0.0
07/06:30am 16.8 17.7 16.2 96 0.4 SE 6 7 3 4 1014.2 1014.2 0.0
07/06:00am 17.2 18.7 16.6 96 0.4 ESE 4 6 2 3 1014.1 1014.1 0.0
07/05:30am 17.3 18.4 16.7 96 0.4 ESE 6 7 3 4 1013.9 1013.9 0.0
07/05:00am 17.4 18.5 16.6 95 0.5 ESE 6 7 3 4 1013.7 1013.7 0.0
07/04:30am 17.5 18.7 16.9 96 0.4 SE 6 7 3 4 1013.4 1013.4 0.0
07/04:00am 17.9 19.3 17.3 96 0.4 ESE 6 9 3 5 1013.2 1013.2 0.0
07/03:30am 18.5 20.1 17.8 96 0.4 ESE 6 9 3 5 1013.2 1013.2 0.0
07/03:00am 18.2 19.3 16.7 91 0.9 E 6 6 3 3 1013.1 1013.1 0.0
07/02:30am 18.2 19.4 16.9 92 0.8 E 6 6 3 3 1013.2 1013.2 0.0
07/02:00am 18.1 19.2 16.6 91 0.9 ESE 6 7 3 4 1013.4 1013.4 0.0
07/01:30am 18.4 19.7 17.2 93 0.7 SE 6 7 3 4 1013.7 1013.7 0.0
07/01:00am 18.2 19.6 17.4 95 0.5 SE 6 7 3 4 1014.1 1014.1 0.0
07/12:30am 18.2 20.6 16.9 92 0.8 CALM 0 0 0 0 1014.2 1014.2 0.0
07/12:00am 18.6 21.0 17.1 91 0.9 CALM 0 0 0 0 1014.2 1014.2 0.0
 
Date/Time
CST
Temp
°C
App
Temp
°C
Dew
Point
Rel
Hum
%
Delta-T
°C
Wind Press
QNH
hPa
Press
MSL
hPa
Rain
since 9 am
mm
Dir
 
Spd
km/h
Gust
km/h
Spd
kts
Gust
kts
06/11:30pm 19.0 21.4 17.0 88 1.2 CALM 0 0 0 0 1014.3 1014.3 0.0
06/11:00pm 20.0 22.6 17.4 85 1.6 CALM 0 0 0 0 1014.5 1014.5 0.0
06/10:30pm 20.7 23.5 17.9 84 1.7 CALM 0 0 0 0 1014.6 1014.6 0.0
06/10:00pm 21.2 23.9 17.8 81 2.1 CALM 0 0 0 0 1014.6 1014.6 0.0
06/09:30pm 22.0 23.8 18.2 79 2.4 ESE 6 7 3 4 1014.7 1014.7 0.0
06/09:00pm 22.6 24.4 18.4 77 2.6 ESE 6 9 3 5 1014.6 1014.6 0.0
06/08:30pm 22.9 24.5 18.2 75 2.9 SE 7 9 4 5 1014.3 1014.3 0.0
06/08:00pm 23.4 25.0 18.3 73 3.2 SE 7 11 4 6 1014.1 1014.1 0.0
06/07:30pm 24.0 25.3 18.4 71 3.5 ESE 9 15 5 8 1013.7 1013.7 0.0
06/07:00pm 24.5 25.1 18.7 70 3.7 ESE 13 22 7 12 1013.4 1013.4 0.0
06/06:30pm 24.8 25.0 18.5 68 4.0 ESE 15 20 8 11 1013.0 1012.9 0.0
06/06:00pm 25.4 24.5 18.3 65 4.5 ESE 20 32 11 17 1012.8 1012.7 0.0
06/05:30pm 26.0 25.8 18.4 63 4.8 ESE 17 28 9 15 1012.7 1012.6 0.0
06/05:00pm 26.7 26.0 18.3 60 5.3 ESE 19 28 10 15 1012.4 1012.3 0.0
06/04:30pm 27.3 25.8 17.8 56 6.0 ESE 22 32 12 17 1012.3 1012.2 0.0
06/04:00pm 28.1 26.3 17.0 51 7.0 E 22 33 12 18 1012.2 1012.1 0.0
06/03:30pm 27.6 25.8 16.9 52 6.7 ESE 22 37 12 20 1012.2 1012.1 0.0
06/03:00pm 29.0 26.6 16.5 46 7.8 E 24 35 13 19 1012.2 1012.1 0.0
06/02:30pm 28.3 25.8 16.2 47 7.5 ESE 24 35 13 19 1012.5 1012.4 0.0
06/02:00pm 29.5 25.6 14.5 40 9.1 E 28 44 15 24 1012.9 1012.8 0.0
06/01:30pm 29.2 26.7 14.2 40 9.0 SE 20 33 11 18 1013.3 1013.3 0.0
06/01:00pm 29.5 26.5 13.7 38 9.5 E 22 30 12 16 1013.7 1013.7 0.0
06/12:30pm 29.5 27.3 13.3 37 9.6 ESE 17 32 9 17 1013.9 1013.9 0.0
06/12:00pm 29.2 27.6 13.8 39 9.2 ESE 15 26 8 14 1014.3 1014.3 0.0
06/11:30am 28.8 27.7 16.4 47 7.7 ESE 17 24 9 13 1014.7 1014.7 0.0
06/11:00am 28.2 26.6 16.5 49 7.3 ESE 20 28 11 15 1014.9 1014.9 0.0
06/10:30am 27.8 27.0 16.1 49 7.2 ESE 15 22 8 12 1015.1 1015.1 0.0
06/10:00am 27.9 26.3 15.9 48 7.4 ESE 19 28 10 15 1015.2 1015.2 0.0
06/09:30am 27.0 26.8 16.6 53 6.4 ESE 13 20 7 11 1015.3 1015.3 0.0
06/09:00am 25.7 26.8 18.9 66 4.3 ESE 11 17 6 9 1015.2 1015.2 0.0
06/08:30am 24.3 27.0 20.2 78 2.7 E 6 9 3 5 1015.1 1015.1 0.0
06/08:00am 21.1 24.5 19.4 90 1.1 CALM 0 0 0 0 1015.0 1015.0 0.0
06/07:30am 18.6 21.5 18.1 97 0.3 CALM 0 0 0 0 1014.7 1014.7 0.0
06/07:00am 17.6 20.0 17.1 97 0.3 CALM 0 0 0 0 1014.4 1014.4 0.0
06/06:30am 17.9 20.0 17.3 96 0.4 SE 2 6 1 3 1013.9 1013.9 0.0
06/06:00am 18.3 19.6 17.5 95 0.5 ESE 7 9 4 5 1013.7 1013.7 0.0
06/05:30am 19.0 20.6 18.2 95 0.5 E 7 9 4 5 1013.6 1013.6 0.0
06/05:00am 19.8 21.6 18.8 94 0.6 ESE 7 9 4 5 1013.7 1013.7 0.0
06/04:30am 20.1 23.1 18.4 90 1.1 CALM 0 4 0 2 1013.5 1013.5 0.0
06/04:00am 21.1 23.3 19.7 92 0.9 ESE 7 11 4 6 1013.5 1013.5 0.0
06/03:30am 21.4 23.4 19.9 91 1.0 E 9 13 5 7 1013.5 1013.5 0.0
06/03:00am 20.5 22.4 19.8 96 0.4 E 9 11 5 6 1013.7 1013.7 0.0
06/02:30am 20.1 22.2 19.4 96 0.4 E 7 9 4 5 1013.9 1013.9 0.0
06/02:00am 20.0 22.2 19.5 97 0.3 SE 7 11 4 6 1014.1 1014.1 0.0
06/01:30am 20.3 23.8 19.5 95 0.5 CALM 0 0 0 0 1014.4 1014.4 0.0
06/01:00am 20.8 24.6 20.1 96 0.4 CALM 0 0 0 0 1014.7 1014.7 0.0
06/12:30am 20.6 24.0 19.4 93 0.8 CALM 0 0 0 0 1014.8 1014.8 0.0
06/12:00am 21.2 23.8 20.0 93 0.8 SE 6 7 3 4 1015.0 1015.0 0.0
 
Date/Time
CST
Temp
°C
App
Temp
°C
Dew
Point
Rel
Hum
%
Delta-T
°C
Wind Press
QNH
hPa
Press
MSL
hPa
Rain
since 9 am
mm
Dir
 
Spd
km/h
Gust
km/h
Spd
kts
Gust
kts
05/11:30pm 21.5 24.4 19.8 90 1.1 SSE 4 6 2 3 1015.1 1015.1 0.0
05/11:00pm 22.1 25.2 20.2 89 1.2 SSE 4 6 2 3 1015.2 1015.2 0.0
05/10:30pm 22.5 26.3 20.2 87 1.5 CALM 0 0 0 0 1015.4 1015.4 0.0
05/10:00pm 23.0 25.8 20.5 86 1.6 S 6 9 3 5 1015.3 1015.3 0.0
05/09:30pm 23.1 25.7 20.4 85 1.7 S 7 11 4 6 1015.3 1015.3 0.0
05/09:00pm 23.5 26.3 20.4 83 2.0 S 6 9 3 5 1015.2 1015.2 0.0
05/08:30pm 23.6 26.2 20.1 81 2.3 S 6 7 3 4 1015.2 1015.2 0.0
05/08:00pm 23.7 27.4 20.0 80 2.4 CALM 0 0 0 0 1015.0 1015.0 0.0
05/07:30pm 23.9 26.4 19.8 78 2.6 ESE 6 7 3 4 1014.6 1014.6 0.0
05/07:00pm 23.9 26.4 19.8 78 2.6 ESE 6 9 3 5 1014.3 1014.3 0.0
05/06:30pm 23.8 26.3 19.9 79 2.5 SE 6 9 3 5 1014.0 1014.0 0.0
05/06:00pm 23.8 25.9 20.1 80 2.4 SE 9 15 5 8 1014.0 1014.0 0.0
05/05:30pm 23.8 26.5 20.7 83 2.0 SSE 7 9 4 5 1013.8 1013.8 0.0
05/05:00pm 24.0 26.2 20.5 81 2.3 S 9 15 5 8 1013.7 1013.7 0.0
05/04:30pm 25.0 27.7 20.3 75 3.1 S 6 11 3 6 1013.7 1013.7 0.0
05/04:00pm 24.9 25.2 18.8 69 3.9 ENE 15 20 8 11 1013.7 1013.7 0.0
05/03:30pm 24.9 27.1 20.4 76 2.9 SSE 9 17 5 9 1013.5 1013.5 0.0
05/03:00pm 27.1 26.9 17.6 56 6.0 ESE 15 22 8 12 1013.5 1013.5 0.0
05/02:30pm 27.3 26.4 16.9 53 6.5 ESE 17 24 9 13 1013.6 1013.6 0.0

Other Formats:

Comma delimited format used in spreadsheet applications
http://www.bom.gov.au/fwo/IDD60801/IDD60801.94153.axf

JavaScript Object Notation format (JSON) in row-major order
http://www.bom.gov.au/fwo/IDD60801/IDD60801.94153.json